Time;durP1;ratioP1;P1;durP2;ratioP2;P2;SDS_P1;SDS_P2;PMS_P1;PMS_P2;Temp;Humidity;BMP_temperature;BMP_pressure;BME280_temperature;BME280_humidity;BME280_pressure;Samples;Min_cycle;Max_cycle;Signal;HPM_P1;HPM_P2
2021/04/25 00:00:33;;;;;;;1.05;0.60;;;;;;;3.24;47.84;101382.19;5064316;28;20024;-60
2021/04/25 00:02:58;;;;;;;0.77;0.60;;;;;;;3.20;47.71;101383.75;5067165;28;20029;-62
2021/04/25 00:05:24;;;;;;;1.45;0.77;;;;;;;3.24;46.92;101374.47;5066797;28;20020;-62
2021/04/25 00:07:49;;;;;;;2.13;0.65;;;;;;;3.22;46.28;101377.88;5066896;28;20055;-61
2021/04/25 00:10:17;;;;;;;3.88;0.70;;;;;;;3.18;46.44;101378.56;5066576;28;20079;-60
2021/04/25 00:12:43;;;;;;;2.03;0.60;;;;;;;3.12;46.40;101382.59;5066941;28;20025;-60
2021/04/25 00:15:16;;;;;;;2.45;0.73;;;;;;;3.10;45.94;101385.97;5065470;28;20032;-60
2021/04/25 00:17:41;;;;;;;2.20;0.50;;;;;;;3.10;45.74;101385.97;5066716;28;20493;-60
2021/04/25 00:20:08;;;;;;;1.95;0.55;;;;;;;3.06;45.87;101390.94;5066731;28;20085;-59
2021/04/25 00:22:34;;;;;;;1.85;0.90;;;;;;;2.99;45.84;101386.38;5066650;28;20047;-59
2021/04/25 00:24:59;;;;;;;1.65;0.73;;;;;;;2.99;45.66;101384.69;5066333;28;20029;-59
2021/04/25 00:27:26;;;;;;;1.63;0.77;;;;;;;2.92;45.88;101388.72;5066600;28;20021;-59
2021/04/25 00:29:51;;;;;;;1.33;0.70;;;;;;;2.86;45.89;101391.03;5066599;28;20025;-59
2021/04/25 00:32:16;;;;;;;1.17;0.60;;;;;;;2.81;45.90;101387.41;5066524;28;20021;-62
2021/04/25 00:34:42;;;;;;;0.95;0.43;;;;;;;2.77;45.77;101398.34;5065868;28;20035;-61
2021/04/25 00:37:07;;;;;;;1.20;0.70;;;;;;;2.67;46.00;101377.47;5065472;28;20017;-59
2021/04/25 00:39:33;;;;;;;3.40;0.63;;;;;;;2.65;45.91;101381.66;5064882;28;20493;-60
2021/04/25 00:41:58;;;;;;;1.50;0.60;;;;;;;2.66;45.62;101388.56;5065075;28;20025;-60
2021/04/25 00:44:23;;;;;;;2.45;0.55;;;;;;;2.64;45.81;101397.88;5065054;28;20081;-61
2021/04/25 00:46:49;;;;;;;1.33;0.70;;;;;;;2.61;45.69;101402.88;5064091;28;20023;-62
2021/04/25 00:49:14;;;;;;;1.42;0.65;;;;;;;2.55;45.60;101400.06;5065152;28;20021;-61
2021/04/25 00:51:40;;;;;;;4.85;0.60;;;;;;;2.51;45.49;101399.06;5063549;28;20545;-61
2021/04/25 00:54:06;;;;;;;0.70;0.60;;;;;;;2.47;45.40;101405.75;5064098;28;20032;-62
2021/04/25 00:56:32;;;;;;;1.10;0.50;;;;;;;2.44;45.42;101403.06;5063497;28;20409;-61
2021/04/25 00:58:58;;;;;;;3.03;0.60;;;;;;;2.41;45.36;101400.34;5065023;28;20028;-61
2021/04/25 01:01:26;;;;;;;1.55;0.60;;;;;;;2.37;45.23;101401.06;5064833;28;20033;-62
2021/04/25 01:03:52;;;;;;;2.20;0.68;;;;;;;2.27;45.25;101393.81;5064765;28;20021;-61
2021/04/25 01:06:17;;;;;;;0.93;0.60;;;;;;;2.25;45.36;101406.56;5065052;28;20028;-62
2021/04/25 01:08:43;;;;;;;1.15;0.60;;;;;;;2.19;45.37;101396.91;5064727;28;20062;-62
2021/04/25 01:11:08;;;;;;;2.45;0.60;;;;;;;2.18;45.19;101405.41;5062870;28;20501;-62
2021/04/25 01:13:33;;;;;;;7.82;1.08;;;;;;;2.09;45.42;101400.75;5064509;28;20021;-62
2021/04/25 01:15:59;;;;;;;6.25;0.88;;;;;;;2.07;45.32;101402.41;5064229;28;20098;-61
2021/04/25 01:18:24;;;;;;;0.52;0.50;;;;;;;2.01;45.37;101404.69;5064926;28;20029;-61
2021/04/25 01:21:01;;;;;;;0.95;0.60;;;;;;;1.91;45.42;101400.88;5064786;28;20032;-62
2021/04/25 01:23:27;;;;;;;0.98;0.60;;;;;;;1.88;45.35;101403.28;5064659;28;20017;-61
2021/04/25 01:25:53;;;;;;;2.60;0.60;;;;;;;1.86;45.55;101412.59;5064077;28;20080;-62
2021/04/25 01:28:18;;;;;;;0.68;0.47;;;;;;;1.80;45.48;101402.06;5064341;28;20025;-62
2021/04/25 01:30:43;;;;;;;1.15;0.50;;;;;;;1.81;45.56;101403.81;5064620;28;20036;-63
2021/04/25 01:33:09;;;;;;;0.40;0.40;;;;;;;1.78;45.51;101403.69;5064638;28;20032;-65
2021/04/25 01:35:34;;;;;;;0.57;0.43;;;;;;;1.76;45.49;101407.88;5064078;28;20028;-62
2021/04/25 01:38:00;;;;;;;1.02;0.52;;;;;;;1.76;45.60;101401.06;5064176;28;20532;-64
2021/04/25 01:40:27;;;;;;;2.67;0.60;;;;;;;1.70;45.41;101406.78;5063836;28;20032;-63
2021/04/25 01:42:56;;;;;;;1.65;0.60;;;;;;;1.74;45.43;101410.38;5064555;28;20021;-63
2021/04/25 01:45:22;;;;;;;2.53;0.73;;;;;;;1.69;45.73;101415.25;5064280;28;20029;-59
2021/04/25 01:47:52;;;;;;;1.10;0.50;;;;;;;1.64;45.56;101414.19;5062811;28;20044;-63
2021/04/25 01:50:20;;;;;;;2.15;0.70;;;;;;;1.61;45.65;101406.38;5063753;28;20055;-59
2021/04/25 01:52:45;;;;;;;0.70;0.52;;;;;;;1.59;45.52;101405.44;5062474;28;20040;-63
2021/04/25 01:55:12;;;;;;;0.75;0.47;;;;;;;1.53;45.57;101398.38;5063734;28;20108;-62
2021/04/25 01:57:37;;;;;;;0.80;0.60;;;;;;;1.52;45.88;101411.94;5063936;28;20021;-63
2021/04/25 02:00:08;;;;;;;0.75;0.50;;;;;;;1.49;45.72;101411.81;5063863;28;20025;-63
2021/04/25 02:02:34;;;;;;;2.42;0.60;;;;;;;1.46;45.78;101412.56;5063724;28;20021;-62
2021/04/25 02:04:59;;;;;;;0.70;0.50;;;;;;;1.46;45.75;101410.00;5061957;28;20024;-62
2021/04/25 02:07:25;;;;;;;0.40;0.40;;;;;;;1.40;45.96;101419.97;5063678;28;20094;-62
2021/04/25 02:09:50;;;;;;;1.58;0.60;;;;;;;1.39;45.98;101425.88;5063709;28;20025;-62
2021/04/25 02:12:16;;;;;;;1.35;0.70;;;;;;;1.39;45.91;101428.44;5063722;28;20485;-62
2021/04/25 02:14:42;;;;;;;0.70;0.50;;;;;;;1.37;46.09;101417.28;5063271;28;20047;-62
2021/04/25 02:17:08;;;;;;;0.50;0.50;;;;;;;1.31;46.10;101407.59;5063198;28;20020;-61
2021/04/25 02:19:34;;;;;;;1.00;0.50;;;;;;;1.34;45.97;101412.88;5063328;28;20021;-62
2021/04/25 02:21:59;;;;;;;1.77;0.50;;;;;;;1.29;46.08;101414.34;5063168;28;20025;-62
2021/04/25 02:24:25;;;;;;;0.85;0.68;;;;;;;1.29;46.21;101409.25;5063460;28;20020;-63
2021/04/25 02:26:50;;;;;;;1.13;0.55;;;;;;;1.28;46.21;101414.28;5063294;28;20052;-60
2021/04/25 02:29:16;;;;;;;2.53;0.60;;;;;;;1.20;46.18;101409.69;5062933;28;20050;-59
2021/04/25 02:31:41;;;;;;;0.90;0.60;;;;;;;1.21;46.41;101423.34;5062881;28;20090;-60
2021/04/25 02:34:08;;;;;;;1.75;0.60;;;;;;;1.20;46.86;101412.25;5063108;28;20020;-60
2021/04/25 02:36:33;;;;;;;2.30;0.70;;;;;;;1.16;46.46;101417.13;5061810;28;20167;-60
2021/04/25 02:38:58;;;;;;;0.50;0.50;;;;;;;1.13;46.39;101428.13;5062833;28;20080;-60
2021/04/25 02:41:24;;;;;;;2.65;0.63;;;;;;;1.12;46.39;101431.47;5062694;28;20025;-60
2021/04/25 02:43:49;;;;;;;0.82;0.50;;;;;;;1.08;46.26;101424.47;5062642;28;20025;-60
2021/04/25 02:46:15;;;;;;;0.68;0.45;;;;;;;1.08;46.52;101427.00;5062882;28;20016;-63
2021/04/25 02:48:40;;;;;;;0.90;0.70;;;;;;;1.04;46.58;101431.09;5063261;28;20064;-63
2021/04/25 02:51:05;;;;;;;1.30;0.73;;;;;;;0.98;46.73;101431.69;5062526;28;20052;-62
2021/04/25 02:53:31;;;;;;;1.50;0.57;;;;;;;0.93;46.99;101430.59;5062761;28;20017;-63
2021/04/25 02:55:57;;;;;;;1.52;0.60;;;;;;;0.92;47.00;101427.97;5062234;28;20504;-63
2021/04/25 02:58:22;;;;;;;3.80;0.70;;;;;;;0.90;47.50;101424.44;5062587;28;20033;-59
2021/04/25 03:00:47;;;;;;;0.73;0.50;;;;;;;0.86;47.07;101423.44;5062795;28;20052;-58
2021/04/25 03:03:13;;;;;;;2.53;0.63;;;;;;;0.86;47.19;101420.88;5062615;28;20021;-60
2021/04/25 03:05:38;;;;;;;1.13;0.50;;;;;;;0.84;47.20;101422.50;5062333;28;20044;-62
2021/04/25 03:08:04;;;;;;;1.13;0.70;;;;;;;0.84;47.29;101420.81;5062316;28;20025;-63
2021/04/25 03:10:29;;;;;;;1.13;0.80;;;;;;;0.86;47.29;101420.88;5062298;28;20024;-62
2021/04/25 03:12:55;;;;;;;0.90;0.50;;;;;;;0.81;47.31;101420.66;5062742;28;20021;-63
2021/04/25 03:15:21;;;;;;;0.95;0.40;;;;;;;0.78;47.45;101420.53;5062385;28;20029;-63
2021/04/25 03:17:48;;;;;;;0.60;0.60;;;;;;;0.81;47.26;101414.66;5062389;28;20446;-63
2021/04/25 03:20:15;;;;;;;0.98;0.77;;;;;;;0.86;47.29;101420.88;5062159;28;20029;-62
2021/04/25 03:22:41;;;;;;;2.05;0.68;;;;;;;0.83;47.25;101418.19;5062237;28;20035;-62
2021/04/25 03:25:07;;;;;;;2.28;0.60;;;;;;;0.84;47.26;101417.38;5060882;28;20041;-62
2021/04/25 03:27:33;;;;;;;0.93;0.77;;;;;;;0.82;47.66;101424.09;5062460;28;20055;-62
2021/04/25 03:29:58;;;;;;;0.85;0.70;;;;;;;0.84;47.45;101427.59;5062237;28;20017;-62
2021/04/25 03:32:24;;;;;;;0.85;0.60;;;;;;;0.87;47.47;101420.06;5062231;28;20025;-62
2021/04/25 03:34:50;;;;;;;1.48;0.80;;;;;;;0.86;47.40;101420.88;5061049;28;20017;-62
2021/04/25 03:37:15;;;;;;;0.70;0.55;;;;;;;0.85;47.50;101421.69;5060804;28;20078;-62
2021/04/25 03:39:40;;;;;;;0.60;0.50;;;;;;;0.85;47.71;101431.91;5062012;28;20036;-62
2021/04/25 03:42:06;;;;;;;4.13;0.60;;;;;;;0.82;47.54;101432.63;5062184;28;20021;-60
2021/04/25 03:44:31;;;;;;;1.13;0.57;;;;;;;0.84;47.72;101432.72;5061769;28;20066;-60
2021/04/25 03:46:57;;;;;;;3.30;0.70;;;;;;;0.87;47.77;101440.53;5061988;28;20081;-60
2021/04/25 03:49:23;;;;;;;0.93;0.77;;;;;;;0.87;47.56;101440.53;5062000;28;20028;-59
2021/04/25 03:51:50;;;;;;;1.25;0.80;;;;;;;0.90;47.68;101438.13;5062152;28;20055;-60
2021/04/25 03:54:17;;;;;;;0.90;0.50;;;;;;;0.91;47.82;101437.31;5062138;28;20079;-58
2021/04/25 03:56:43;;;;;;;1.45;0.63;;;;;;;0.92;47.91;101435.63;5061603;28;20024;-59
2021/04/25 03:59:08;;;;;;;3.55;0.80;;;;;;;0.97;47.69;101436.75;5061890;28;20164;-58
2021/04/25 04:01:34;;;;;;;1.20;0.50;;;;;;;1.03;47.73;101442.16;5061720;28;20025;-59
2021/04/25 04:03:59;;;;;;;1.05;0.60;;;;;;;1.04;47.81;101438.78;5062146;28;20048;-59
2021/04/25 04:06:25;;;;;;;0.57;0.57;;;;;;;1.08;47.86;101445.81;5061913;28;20021;-59
2021/04/25 04:08:50;;;;;;;1.58;0.63;;;;;;;1.10;47.62;101443.31;5061971;28;20024;-59
2021/04/25 04:11:15;;;;;;;1.33;0.75;;;;;;;1.06;47.75;101437.19;5061402;28;20079;-59
2021/04/25 04:13:41;;;;;;;1.25;0.80;;;;;;;1.08;47.70;101435.56;5061809;28;20021;-62
2021/04/25 04:16:06;;;;;;;2.42;0.70;;;;;;;1.11;47.73;101445.94;5061729;28;20057;-62
2021/04/25 04:18:32;;;;;;;1.30;0.70;;;;;;;1.26;47.81;101441.47;5062092;28;20488;-62
2021/04/25 04:20:57;;;;;;;0.60;0.60;;;;;;;1.54;47.88;101435.06;5061728;28;20025;-63
2021/04/25 04:23:23;;;;;;;0.63;0.63;;;;;;;1.99;47.05;101439.59;5061811;28;20429;-61
2021/04/25 04:25:48;;;;;;;2.00;0.60;;;;;;;2.46;46.92;101437.31;5061033;28;20023;-61
2021/04/25 04:28:14;;;;;;;1.60;0.60;;;;;;;3.07;45.61;101441.41;5061992;28;20059;-61
2021/04/25 04:30:39;;;;;;;1.27;0.60;;;;;;;3.52;44.28;101445.72;5061899;28;20032;-61
2021/04/25 04:33:05;;;;;;;0.90;0.60;;;;;;;3.97;43.35;101438.75;5061810;28;20013;-61
2021/04/25 04:35:30;;;;;;;3.03;0.40;;;;;;;4.31;42.62;101454.47;5061093;28;20056;-62
2021/04/25 04:37:56;;;;;;;1.05;0.60;;;;;;;4.56;41.98;101445.00;5061392;28;20040;-61
2021/04/25 04:40:21;;;;;;;0.93;0.50;;;;;;;4.76;40.96;101437.09;5061240;28;20025;-61
2021/04/25 04:42:49;;;;;;;0.55;0.52;;;;;;;4.94;40.87;101437.66;5061648;28;20083;-61
2021/04/25 04:45:16;;;;;;;2.53;0.80;;;;;;;5.23;40.52;101441.97;5061960;28;20055;-59
2021/04/25 04:47:45;;;;;;;0.85;0.50;;;;;;;5.57;39.63;101444.69;5065078;28;20024;-59
2021/04/25 04:50:15;;;;;;;0.90;0.55;;;;;;;5.75;39.01;101446.03;5064691;28;20052;-59
2021/04/25 04:52:41;;;;;;;0.55;0.40;;;;;;;5.91;38.66;101444.78;5065040;28;20021;-59
2021/04/25 04:55:08;;;;;;;1.10;0.43;;;;;;;5.98;37.93;101443.22;5065063;28;20035;-59
2021/04/25 04:57:33;;;;;;;0.70;0.60;;;;;;;6.05;38.02;101443.44;5065003;28;20025;-59
2021/04/25 04:59:59;;;;;;;0.55;0.40;;;;;;;6.14;37.89;101442.84;5064880;28;20064;-59
2021/04/25 05:02:24;;;;;;;0.90;0.40;;;;;;;6.31;37.39;101443.28;5063090;28;20013;-60
2021/04/25 05:04:50;;;;;;;3.03;0.60;;;;;;;6.53;37.49;101440.38;5064538;28;20032;-59
2021/04/25 05:07:15;;;;;;;0.40;0.40;;;;;;;6.78;36.29;101440.97;5064969;28;20021;-60
2021/04/25 05:09:41;;;;;;;1.70;0.70;;;;;;;6.87;35.95;101430.88;5064695;28;20025;-59
2021/04/25 05:12:07;;;;;;;2.53;0.60;;;;;;;7.00;36.44;101423.41;5064671;28;20025;-59
2021/04/25 05:14:32;;;;;;;1.42;0.95;;;;;;;7.25;35.36;101436.88;5064635;28;20028;-59
2021/04/25 05:16:57;;;;;;;0.57;0.40;;;;;;;7.18;35.42;101441.03;5064486;28;20366;-60
2021/04/25 05:19:23;;;;;;;0.50;0.50;;;;;;;7.23;35.40;101441.13;5064681;28;20185;-60
2021/04/25 05:21:48;;;;;;;0.90;0.57;;;;;;;7.45;35.64;101445.06;5064843;28;20033;-62
2021/04/25 05:24:14;;;;;;;0.82;0.60;;;;;;;7.81;35.14;101453.56;5064181;28;20092;-62
2021/04/25 05:26:39;;;;;;;1.33;0.60;;;;;;;8.22;35.51;101444.84;5064148;28;20027;-62
2021/04/25 05:29:05;;;;;;;1.60;0.50;;;;;;;8.70;33.72;101451.69;5064161;28;20381;-62
2021/04/25 05:31:31;;;;;;;0.55;0.47;;;;;;;8.67;32.95;101443.03;5063252;28;20025;-62
2021/04/25 05:33:56;;;;;;;1.00;0.60;;;;;;;8.54;33.17;101447.16;5064673;28;20032;-62
2021/04/25 05:36:21;;;;;;;0.45;0.45;;;;;;;8.46;33.50;101440.06;5064132;28;20017;-63
2021/04/25 05:38:47;;;;;;;1.42;0.70;;;;;;;8.77;33.08;101444.06;5064097;28;20029;-63
2021/04/25 05:41:12;;;;;;;1.90;0.60;;;;;;;8.94;32.60;101440.88;5063757;28;20083;-62
2021/04/25 05:43:37;;;;;;;1.52;0.60;;;;;;;9.08;32.36;101445.38;5064069;28;20017;-62
2021/04/25 05:46:03;;;;;;;0.73;0.50;;;;;;;9.38;32.54;101449.22;5064171;28;20024;-63
2021/04/25 05:48:28;;;;;;;0.40;0.40;;;;;;;9.41;31.21;101450.16;5064350;28;20052;-63
2021/04/25 05:50:54;;;;;;;0.70;0.50;;;;;;;9.30;31.10;101444.84;5063825;28;20068;-62
2021/04/25 05:53:19;;;;;;;1.85;0.60;;;;;;;8.97;31.34;101446.09;5063848;28;20024;-63
2021/04/25 05:55:45;;;;;;;2.83;0.60;;;;;;;8.82;31.99;101451.88;5063354;28;20021;-62
2021/04/25 05:58:11;;;;;;;1.15;0.55;;;;;;;8.85;32.55;101449.34;5061971;28;20017;-63
2021/04/25 06:00:38;;;;;;;1.70;0.60;;;;;;;9.09;31.88;101447.97;5064041;28;20512;-63
2021/04/25 06:03:05;;;;;;;1.33;0.50;;;;;;;9.36;31.88;101449.22;5063676;28;20053;-62
2021/04/25 06:05:30;;;;;;;0.85;0.43;;;;;;;9.41;30.60;101442.38;5063253;28;20183;-62
2021/04/25 06:07:56;;;;;;;1.98;0.55;;;;;;;9.32;30.23;101424.13;5063517;28;20028;-61
2021/04/25 06:10:22;;;;;;;0.82;0.57;;;;;;;9.13;30.45;101441.13;5063266;28;20047;-61
2021/04/25 06:12:50;;;;;;;1.73;0.60;;;;;;;8.83;31.12;101439.81;5063824;28;20025;-63
2021/04/25 06:15:17;;;;;;;0.70;0.50;;;;;;;8.86;31.16;101445.94;5063304;28;20024;-62
2021/04/25 06:17:43;;;;;;;0.98;0.50;;;;;;;9.00;30.80;101445.25;5063271;28;20028;-63
2021/04/25 06:20:09;;;;;;;2.05;0.50;;;;;;;9.00;30.56;101447.84;5063179;28;20021;-63
2021/04/25 06:22:34;;;;;;;3.33;0.50;;;;;;;8.99;30.68;101441.81;5063640;28;20045;-63
2021/04/25 06:24:59;;;;;;;1.80;0.63;;;;;;;9.04;30.75;101449.66;5063410;28;20060;-64
2021/04/25 06:27:25;;;;;;;0.60;0.60;;;;;;;9.45;30.48;101421.69;5063321;28;20324;-65
2021/04/25 06:29:57;;;;;;;0.73;0.45;;;;;;;9.58;30.02;101441.72;5063097;28;20045;-63
2021/04/25 06:32:22;;;;;;;0.83;0.63;;;;;;;9.86;29.36;101439.47;5063396;28;20044;-62
2021/04/25 06:34:48;;;;;;;1.10;0.50;;;;;;;9.78;28.60;101441.09;5063003;28;20365;-63
2021/04/25 06:37:14;;;;;;;0.95;0.60;;;;;;;9.50;28.90;101439.06;5063201;28;20030;-63
2021/04/25 06:39:42;;;;;;;1.42;0.55;;;;;;;9.64;29.74;101443.53;5063756;28;20487;-63
2021/04/25 06:42:08;;;;;;;0.40;0.40;;;;;;;9.97;28.94;101426.59;5062840;28;20256;-63
2021/04/25 06:44:33;;;;;;;1.55;0.68;;;;;;;9.92;28.96;101441.22;5063957;28;20052;-66
2021/04/25 06:46:58;;;;;;;0.82;0.50;;;;;;;9.97;29.43;101441.31;5064318;28;20048;-66
2021/04/25 06:49:24;;;;;;;0.40;0.40;;;;;;;10.21;28.44;101426.84;5062934;28;20029;-68
2021/04/25 06:51:49;;;;;;;1.67;0.65;;;;;;;10.09;27.90;101445.75;5063948;28;20056;-69
2021/04/25 06:54:15;;;;;;;0.80;0.50;;;;;;;9.88;28.65;101444.66;5062509;28;20045;-71
2021/04/25 06:56:42;;;;;;;2.30;0.50;;;;;;;10.21;28.99;101455.41;5063649;28;20027;-69
2021/04/25 06:59:07;;;;;;;1.73;0.50;;;;;;;10.71;28.37;101440.28;5062617;28;20024;-69
2021/04/25 07:01:33;;;;;;;1.02;0.40;;;;;;;10.94;27.25;101452.56;5062552;28;20145;-69
2021/04/25 07:03:58;;;;;;;1.73;0.55;;;;;;;10.94;27.70;101452.56;5063780;28;20029;-69
2021/04/25 07:06:26;;;;;;;2.22;1.00;;;;;;;10.82;27.23;101443.81;5062415;28;20017;-68
2021/04/25 07:08:51;;;;;;;0.95;0.50;;;;;;;10.97;27.60;101434.41;5045894;28;20016;-69
2021/04/25 07:11:17;;;;;;;1.95;0.50;;;;;;;11.06;26.77;101446.56;5063466;28;20028;-69
2021/04/25 07:13:42;;;;;;;1.45;0.60;;;;;;;10.97;26.94;101439.59;5063858;28;20056;-69
2021/04/25 07:16:07;;;;;;;0.80;0.40;;;;;;;10.77;26.48;101441.19;5063857;28;20025;-71
2021/04/25 07:18:33;;;;;;;1.23;0.43;;;;;;;10.70;27.00;101434.22;5063830;28;20017;-70
2021/04/25 07:20:59;;;;;;;0.73;0.50;;;;;;;10.54;26.63;101434.06;5063917;28;20118;-68
2021/04/25 07:23:24;;;;;;;1.17;0.40;;;;;;;10.63;26.61;101453.19;5063772;28;20071;-70
2021/04/25 07:25:52;;;;;;;1.40;0.68;;;;;;;10.73;27.04;101454.16;5063301;28;20025;-70
2021/04/25 07:28:18;;;;;;;1.45;0.50;;;;;;;11.12;26.40;101431.88;5062082;28;20052;-65
2021/04/25 07:30:44;;;;;;;2.35;0.60;;;;;;;11.21;25.65;101445.81;5063365;28;20025;-65
2021/04/25 07:33:09;;;;;;;1.42;0.60;;;;;;;11.21;25.43;101431.09;5063036;28;20100;-66
2021/04/25 07:35:35;;;;;;;0.70;0.43;;;;;;;10.86;25.44;101449.91;5063177;28;20032;-65
2021/04/25 07:38:00;;;;;;;1.40;0.50;;;;;;;10.48;25.83;101443.56;5063259;28;20025;-65
2021/04/25 07:40:26;;;;;;;1.90;0.60;;;;;;;10.62;25.81;101449.72;5063025;28;20436;-66
2021/04/25 07:42:52;;;;;;;1.63;0.50;;;;;;;11.08;25.74;101448.34;5061852;28;20060;-66
2021/04/25 07:45:17;;;;;;;2.67;0.60;;;;;;;11.76;25.61;101452.97;5062738;28;20036;-66
2021/04/25 07:47:44;;;;;;;0.90;0.57;;;;;;;12.19;23.82;101432.31;5063092;28;20021;-65
2021/04/25 07:50:11;;;;;;;1.00;0.60;;;;;;;12.45;24.23;101426.22;5063096;28;20072;-66
2021/04/25 07:52:37;;;;;;;1.17;0.60;;;;;;;12.54;22.93;101431.44;5063363;28;20017;-67
2021/04/25 07:55:05;;;;;;;0.60;0.60;;;;;;;12.50;23.37;101448.81;5062930;28;20051;-66
2021/04/25 07:57:30;;;;;;;1.45;0.40;;;;;;;12.51;22.83;101445.34;5061847;28;20025;-67
2021/04/25 07:59:55;;;;;;;2.45;0.50;;;;;;;12.14;22.99;101445.31;5063105;28;20025;-66
2021/04/25 08:02:22;;;;;;;1.55;0.50;;;;;;;12.03;22.97;101440.03;5062994;28;20189;-65
2021/04/25 08:04:49;;;;;;;1.23;0.60;;;;;;;12.17;23.56;101436.63;5062923;28;20127;-65
2021/04/25 08:07:15;;;;;;;0.60;0.35;;;;;;;12.53;22.37;101434.91;5063135;28;20593;-67
2021/04/25 08:09:40;;;;;;;2.30;0.57;;;;;;;12.50;22.69;101440.13;5061344;28;20079;-66
2021/04/25 08:12:06;;;;;;;1.45;0.57;;;;;;;13.02;22.57;101438.34;5063008;28;20029;-66
2021/04/25 08:14:32;;;;;;;0.88;0.40;;;;;;;13.17;21.41;101434.84;5062867;28;20025;-66
2021/04/25 08:16:58;;;;;;;1.27;0.47;;;;;;;12.74;21.60;101441.00;5062840;28;20047;-65
2021/04/25 08:19:23;;;;;;;1.55;0.52;;;;;;;12.22;21.74;101433.16;5062876;28;20051;-65
2021/04/25 08:21:51;;;;;;;0.60;0.50;;;;;;;11.79;22.37;101431.31;5066223;28;20252;-66
2021/04/25 08:24:17;;;;;;;1.23;0.65;;;;;;;11.53;22.66;101432.94;5066840;28;20025;-65
2021/04/25 08:26:42;;;;;;;0.95;0.50;;;;;;;11.86;22.67;101438.28;5066422;28;20436;-65
2021/04/25 08:29:08;;;;;;;0.82;0.50;;;;;;;11.76;22.52;101419.16;5065241;28;20021;-65
2021/04/25 08:31:33;;;;;;;1.58;0.50;;;;;;;11.76;23.25;101437.38;5066660;28;20052;-68
2021/04/25 08:33:58;;;;;;;2.50;0.40;;;;;;;12.12;22.27;101434.03;5065343;28;20473;-68
2021/04/25 08:36:24;;;;;;;1.40;0.57;;;;;;;12.31;22.38;101444.47;5066373;28;20513;-65
2021/04/25 08:38:49;;;;;;;1.67;0.50;;;;;;;12.14;21.93;101430.56;5066451;28;20040;-66
2021/04/25 08:41:16;;;;;;;2.65;0.50;;;;;;;12.45;22.31;101428.84;5066195;28;20032;-66
2021/04/25 08:43:44;;;;;;;2.08;0.50;;;;;;;12.58;21.70;101443.63;5066527;28;20139;-66
2021/04/25 08:46:12;;;;;;;1.05;0.60;;;;;;;12.47;21.30;101438.41;5066268;28;20090;-67
2021/04/25 08:48:39;;;;;;;0.75;0.38;;;;;;;12.37;21.50;101442.72;5066358;28;20528;-66
2021/04/25 08:51:04;;;;;;;3.03;0.70;;;;;;;12.68;21.62;101441.88;5066172;28;20079;-66
2021/04/25 08:53:31;;;;;;;0.88;0.52;;;;;;;13.04;20.92;101438.34;5066312;28;20029;-68
2021/04/25 08:55:56;;;;;;;0.82;0.73;;;;;;;13.11;19.76;101425.31;5065915;28;20017;-67
2021/04/25 08:58:22;;;;;;;0.85;0.40;;;;;;;13.09;19.53;101424.44;5066031;28;20409;-66
2021/04/25 09:00:49;;;;;;;0.90;0.50;;;;;;;12.77;20.16;101431.44;5066216;28;20047;-65
2021/04/25 09:03:16;;;;;;;0.88;0.57;;;;;;;12.75;20.49;101435.78;5066233;28;20353;-65
2021/04/25 09:05:43;;;;;;;2.45;0.50;;;;;;;12.80;20.39;101430.56;5065869;28;20458;-66
2021/04/25 09:08:09;;;;;;;1.75;0.70;;;;;;;12.61;20.37;101414.94;5064602;28;20048;-68
2021/04/25 09:10:36;;;;;;;0.88;0.40;;;;;;;12.18;21.00;101427.94;5065643;28;20017;-66
2021/04/25 09:13:24;;;;;;;1.88;0.50;;;;;;;12.19;21.21;101425.34;5065931;28;20025;-66
2021/04/25 09:15:52;;;;;;;1.40;0.60;;;;;;;12.50;20.76;101427.09;5065661;28;20167;-65
2021/04/25 09:18:30;;;;;;;1.15;0.50;;;;;;;12.94;20.77;101429.69;5065880;28;20025;-65
2021/04/25 09:21:04;;;;;;;2.95;0.55;;;;;;;13.16;20.65;101416.59;5065571;28;20087;-66
2021/04/25 09:23:30;;;;;;;0.68;0.60;;;;;;;12.94;20.08;101416.66;5064404;28;20476;-67
2021/04/25 09:26:00;;;;;;;0.70;0.40;;;;;;;12.16;20.48;101424.50;5065342;28;20025;-65
2021/04/25 09:28:27;;;;;;;0.40;0.40;;;;;;;12.45;20.91;101428.84;5065595;28;20041;-66
2021/04/25 09:31:09;;;;;;;5.93;1.00;;;;;;;11.96;20.88;101428.75;5064237;28;20025;-66
2021/04/25 09:33:56;;;;;;;1.95;0.50;;;;;;;11.67;21.46;101429.53;5065747;28;20104;-66
2021/04/25 09:36:28;;;;;;;2.10;0.70;;;;;;;11.90;21.88;101436.56;5065255;28;20041;-65
2021/04/25 09:39:06;;;;;;;1.00;0.50;;;;;;;12.94;20.60;101416.66;5065484;28;20237;-65
2021/04/25 09:41:33;;;;;;;0.93;0.40;;;;;;;13.42;19.21;101418.25;5065053;28;20040;-66
2021/04/25 09:44:00;;;;;;;2.33;0.50;;;;;;;13.27;19.27;101417.44;5065494;28;20029;-66
2021/04/25 09:46:56;;;;;;;0.73;0.50;;;;;;;13.08;18.97;101414.84;5065381;28;20032;-67
2021/04/25 09:49:48;;;;;;;1.15;0.60;;;;;;;12.95;19.79;101421.00;5065486;28;20106;-67
2021/04/25 09:52:26;;;;;;;2.97;0.50;;;;;;;13.43;19.02;101425.19;5065326;28;20064;-67
2021/04/25 09:55:12;;;;;;;1.40;0.52;;;;;;;12.96;19.01;101418.38;5065094;28;20024;-66
2021/04/25 09:57:38;;;;;;;1.88;0.80;;;;;;;12.50;19.60;101427.09;5065172;28;20029;-66
2021/04/25 10:00:05;;;;;;;1.23;0.47;;;;;;;13.09;18.62;101393.16;5065097;28;20055;-67
2021/04/25 10:02:31;;;;;;;2.15;0.55;;;;;;;13.14;18.73;101427.91;5063790;28;20025;-67
2021/04/25 10:05:06;;;;;;;1.00;0.50;;;;;;;13.26;18.55;101416.56;5065162;28;20404;-67
2021/04/25 10:07:35;;;;;;;1.13;0.50;;;;;;;13.53;18.41;101394.75;5064968;28;20017;-66
2021/04/25 10:10:18;;;;;;;1.30;0.70;;;;;;;13.70;17.97;101412.94;5064710;28;20029;-67
2021/04/25 10:12:45;;;;;;;1.10;0.50;;;;;;;13.34;18.60;101406.09;5065013;28;20107;-66
2021/04/25 10:15:11;;;;;;;1.13;0.40;;;;;;;13.23;18.78;101393.09;5064998;28;20029;-68
2021/04/25 10:17:41;;;;;;;0.47;0.40;;;;;;;12.32;18.02;101407.13;5065149;28;20075;-67
2021/04/25 10:20:11;;;;;;;5.35;0.65;;;;;;;11.40;19.14;101400.84;5064728;28;20413;-67
2021/04/25 10:22:42;;;;;;;1.05;0.50;;;;;;;11.46;19.51;101409.50;5064729;28;20021;-68
2021/04/25 10:25:11;;;;;;;0.20;0.20;;;;;;;11.23;18.46;101410.31;5064431;28;20021;-67
2021/04/25 10:27:40;;;;;;;0.93;0.40;;;;;;;10.55;19.03;101409.00;5064846;28;20017;-68
2021/04/25 10:30:07;;;;;;;1.10;0.50;;;;;;;10.91;20.29;101411.81;5064512;28;20035;-66
2021/04/25 10:32:34;;;;;;;1.05;0.57;;;;;;;11.97;19.15;101382.78;5064553;28;20021;-67
2021/04/25 10:35:16;;;;;;;0.40;0.32;;;;;;;12.44;18.74;101391.53;5064369;28;20056;-68
2021/04/25 10:37:42;;;;;;;0.88;0.40;;;;;;;11.82;18.53;101392.28;5064602;28;20021;-69
2021/04/25 10:40:23;;;;;;;1.05;0.60;;;;;;;11.07;19.03;101402.41;5062600;28;20031;-68
2021/04/25 10:43:02;;;;;;;1.05;0.40;;;;;;;10.26;19.93;101406.97;5063888;28;20099;-67
2021/04/25 10:45:31;;;;;;;2.03;0.52;;;;;;;10.54;20.18;101405.50;5064059;28;20025;-66
2021/04/25 10:48:18;;;;;;;0.50;0.50;;;;;;;11.59;19.68;101395.72;5063987;28;20021;-68
2021/04/25 10:50:46;;;;;;;1.90;0.50;;;;;;;11.61;18.85;101406.97;5063956;28;20045;-67
2021/04/25 10:53:29;;;;;;;1.75;0.60;;;;;;;11.22;19.23;101388.63;5064094;28;20025;-65
2021/04/25 10:56:21;;;;;;;2.65;0.50;;;;;;;11.42;19.80;101390.44;5063796;28;20037;-67
2021/04/25 10:59:08;;;;;;;0.45;0.45;;;;;;;12.26;18.90;101393.25;5064292;28;20041;-66
2021/04/25 11:01:39;;;;;;;0.70;0.50;;;;;;;12.92;19.27;101392.31;5063772;28;20480;-68
2021/04/25 11:04:08;;;;;;;0.60;0.40;;;;;;;13.73;17.91;101381.59;5063899;28;20033;-68
2021/04/25 11:06:33;;;;;;;0.50;0.40;;;;;;;13.47;17.36;101390.38;5063741;28;20028;-66
2021/04/25 11:08:59;;;;;;;1.88;0.50;;;;;;;12.68;17.86;101394.09;5062715;28;20075;-68
2021/04/25 11:11:29;;;;;;;1.65;0.70;;;;;;;11.55;18.72;101377.50;5063467;28;20517;-66
2021/04/25 11:13:54;;;;;;;0.57;0.40;;;;;;;10.78;19.56;101382.31;5063734;28;20036;-66
2021/04/25 11:16:22;;;;;;;3.35;0.60;;;;;;;10.29;20.34;101397.50;5063586;28;20025;-66
2021/04/25 11:19:03;;;;;;;1.08;0.60;;;;;;;10.64;20.41;101384.81;5062332;28;20024;-66
2021/04/25 11:21:33;;;;;;;1.35;0.82;;;;;;;10.46;20.38;101363.06;5063623;28;20123;-67
2021/04/25 11:24:01;;;;;;;1.23;0.57;;;;;;;9.86;20.94;101385.00;5063431;28;20107;-65
2021/04/25 11:29:15;;;;;;;1.08;0.50;;;;;;;9.40;21.47;101373.25;5063504;28;20560;-65
2021/04/25 11:31:46;;;;;;;1.38;0.70;;;;;;;9.23;22.04;101373.06;5062142;28;20473;-65